Terminal Aerodrome Forecast
Issued by NWS

Home | Current Version | Previous Version | Text Only | Print | Product List | Glossary On
Versions: 1 2 3 4 5 6 7 8 9 10 11 12 13 14 15 16 17 18 19 20 21 22 23 24 25
000
FTAK31 PAFA 252342
TAFAGA
TAF
PAGA 252342Z 2600/2624 31006KT P6SM BKN050
     FM260600 VRB02KT P6SM FEW200
     FM261800 30005KT P6SM FEW200
      AMD NOT SKED=

USA.gov is the U.S. government's official web portal to all federal, state and local government web resources and services.